Indian, AK (99540)

3:24 AM AKST on February 23, 2017 (GMT -0900)
MAV178 | | Change Station

Elev 127 ft 60.96 °N, 149.15 °W | Updated 23 seconds ago

Mostly Cloudy
Mostly Cloudy
20.0 °F
Feels Like 20 °F
N
0.0
Wind Variable Wind from North

Today
High -- | Low -- °F
--% Chance of Precip.
Yesterday
High -- | Low -- °F
Precip. -- in
Pressure 30.51 in
Visibility 10.0 miles
Clouds Scattered Clouds 1800 ft
Overcast 3200 ft
Windchill 20 °F
Dew Point 19 °F
Humidity 97%
Rainfall 0.24 in
Snow Depth Not available.
8:14 AM 6:08 PM
Waning Crescent, 11% visible
METAR PAMR 231153Z 03004KT 10SM SCT018 OVC032 M07/M09 A3050 RMK AO2 SLP331 4/022 T10671089 11067 21072 50004 $
Pressure 30.51 in
Visibility 10.0 miles
Clouds Scattered Clouds 1800 ft
Overcast 3200 ft
Windchill 20 °F
Dew Point 19 °F
Humidity 97%
Rainfall 0.24 in
Snow Depth Not available.
8:14 AM 6:08 PM
Waning Crescent, 11% visible
METAR PAMR 231153Z 03004KT 10SM SCT018 OVC032 M07/M09 A3050 RMK AO2 SLP331 4/022 T10671089 11067 21072 50004 $

Get Your Daily Forecast Email!

Thanks for signing up!

Be on the lookout for a verification email in your inbox.

You'll start receiving the daily forecast at 8 AM.

×

10-Day Weather Forecast

Almanac

Astronomy

Feb. 23, 2017 Rise Set
Actual Time
Civil Twilight
Nautical Twilight
Astronomical Twilight
Moon
Length of Visible Light
Length of Day
Tomorrow will be .
, % of the Moon is Illuminated

Today's Extremes

State Highs State Lows

Community

WunderPhotos

Upload Photos

1,962,540 photos uploaded!

WunderBlog® & News

Nearby

Air Quality

  Air Quality AQ Index Pollutant
Not available.

Snow Depth

Station Depth Elevation

Earthquake Activity

City Distance Mag. Time & Date
Minimum magnitude displayed is 2.5.

Coastal Water Temperatures

Place Temperature

Stations

Nearby Weather Stations

Station Location Temp. Windchill Dew Point Humidity Wind Precip. Elev Updated Type
                   

Watches & Warnings

There are currently no watches in effect.